createdAt,value
2022-08-17T00:00:49.269Z,21.29
2022-08-17T00:03:20.903Z,21.29
2022-08-17T00:05:48.504Z,21.28
2022-08-17T00:08:15.073Z,21.26
2022-08-17T00:10:41.888Z,21.27
2022-08-17T00:13:08.932Z,21.23
2022-08-17T00:15:35.177Z,21.16
2022-08-17T00:18:01.436Z,21.19
2022-08-17T00:20:30.508Z,21.19
2022-08-17T00:23:04.845Z,21.10
2022-08-17T00:25:31.076Z,21.01
2022-08-17T00:27:57.327Z,20.94
2022-08-17T00:30:24.355Z,20.94
2022-08-17T00:33:22.934Z,20.98
2022-08-17T00:35:37.114Z,20.95
2022-08-17T00:38:03.362Z,20.95
2022-08-17T00:40:40.833Z,20.85
2022-08-17T00:43:15.195Z,20.83
2022-08-17T00:45:41.628Z,20.81
2022-08-17T00:48:23.769Z,20.78
2022-08-17T00:51:00.561Z,20.78
2022-08-17T00:53:27.059Z,20.81
2022-08-17T00:55:53.294Z,20.80
2022-08-17T00:58:35.842Z,20.80
2022-08-17T01:01:02.961Z,20.74
2022-08-17T01:03:29.236Z,20.72
2022-08-17T01:05:56.922Z,20.69
2022-08-17T01:08:24.537Z,20.29
2022-08-17T01:10:59.652Z,20.40
2022-08-17T01:13:27.886Z,20.45
2022-08-17T01:16:04.767Z,20.47
2022-08-17T01:18:31.004Z,20.49
2022-08-17T01:20:57.303Z,20.55
2022-08-17T01:23:23.961Z,20.25
2022-08-17T01:25:51.119Z,20.39
2022-08-17T01:28:33.353Z,20.39
2022-08-17T01:31:04.105Z,20.40
2022-08-17T01:33:30.341Z,20.40
2022-08-17T01:35:56.574Z,20.44
2022-08-17T01:38:27.218Z,20.41
2022-08-17T01:40:57.664Z,20.44
2022-08-17T01:43:25.458Z,20.36
2022-08-17T01:46:03.614Z,20.32
2022-08-17T01:48:31.449Z,20.23
2022-08-17T01:50:57.668Z,20.20
2022-08-17T01:53:32.313Z,20.09
2022-08-17T01:55:59.765Z,20.03
2022-08-17T01:58:26.013Z,20.00
2022-08-17T02:01:00.425Z,20.03
2022-08-17T02:03:27.419Z,20.09
2022-08-17T02:05:53.692Z,20.11
2022-08-17T02:08:20.398Z,20.14
2022-08-17T02:10:47.053Z,20.18
2022-08-17T02:13:13.321Z,20.17
2022-08-17T02:15:39.575Z,20.13
2022-08-17T02:18:06.728Z,20.06
2022-08-17T02:20:41.343Z,20.04
2022-08-17T02:23:09.079Z,20.05
2022-08-17T02:25:35.326Z,20.07
2022-08-17T02:28:01.722Z,20.11
2022-08-17T02:30:50.094Z,20.09
2022-08-17T02:33:14.193Z,20.05
2022-08-17T02:35:40.443Z,20.00
2022-08-17T02:38:06.770Z,19.98
2022-08-17T02:40:36.624Z,19.95
2022-08-17T02:43:03.431Z,19.91
2022-08-17T02:45:29.727Z,19.79
2022-08-17T02:47:55.976Z,19.70
2022-08-17T02:50:22.557Z,19.64
2022-08-17T02:53:01.627Z,19.65
2022-08-17T02:55:30.168Z,19.60
2022-08-17T02:57:56.403Z,19.66
2022-08-17T03:00:23.548Z,19.70
2022-08-17T03:02:50.058Z,19.65
2022-08-17T03:05:17.209Z,19.61
2022-08-17T03:07:43.501Z,19.60
2022-08-17T03:10:10.259Z,19.61
2022-08-17T03:12:36.955Z,19.61
2022-08-17T03:15:10.893Z,19.60
2022-08-17T03:17:37.138Z,19.61
2022-08-17T03:20:04.247Z,19.59
2022-08-17T03:22:36.797Z,19.55
2022-08-17T03:25:04.951Z,19.47
2022-08-17T03:27:36.830Z,19.19
2022-08-17T03:30:06.165Z,19.07
2022-08-17T03:32:36.658Z,19.02
2022-08-17T03:35:02.907Z,18.73
2022-08-17T03:37:29.158Z,18.76
2022-08-17T03:39:55.458Z,18.94
2022-08-17T03:42:32.040Z,18.97
2022-08-17T03:44:59.096Z,19.10
2022-08-17T03:47:25.333Z,19.25
2022-08-17T03:49:51.568Z,19.25
2022-08-17T03:52:17.820Z,19.25
2022-08-17T03:54:44.068Z,19.23
2022-08-17T03:57:10.581Z,19.24
2022-08-17T03:59:36.969Z,19.22
2022-08-17T04:02:08.153Z,19.23
2022-08-17T04:04:34.781Z,19.18
2022-08-17T04:07:01.034Z,19.03
2022-08-17T04:09:27.289Z,18.71
2022-08-17T04:11:53.524Z,18.81
2022-08-17T04:14:19.797Z,18.96
2022-08-17T04:16:46.035Z,19.03
2022-08-17T04:19:12.277Z,19.06
2022-08-17T04:21:38.518Z,18.98
2022-08-17T04:24:04.867Z,18.95
2022-08-17T04:26:52.656Z,18.88
2022-08-17T04:29:17.820Z,18.87
2022-08-17T04:31:44.057Z,18.95
2022-08-17T04:34:10.295Z,19.02
2022-08-17T04:36:36.537Z,19.10
2022-08-17T04:39:02.795Z,19.11
2022-08-17T04:41:29.038Z,19.12
2022-08-17T04:43:55.271Z,19.15
2022-08-17T04:46:22.652Z,19.23
2022-08-17T04:48:49.680Z,19.28
2022-08-17T04:51:23.134Z,19.35
2022-08-17T04:53:54.563Z,19.23
2022-08-17T04:56:21.181Z,19.14
2022-08-17T04:58:49.791Z,19.23
2022-08-17T05:01:16.597Z,19.39
2022-08-17T05:03:49.754Z,19.32
2022-08-17T05:06:15.980Z,19.46
2022-08-17T05:08:42.232Z,19.54
2022-08-17T05:11:08.465Z,19.65
2022-08-17T05:13:34.708Z,19.76
2022-08-17T05:16:01.349Z,19.94
2022-08-17T05:18:27.665Z,20.13
2022-08-17T05:20:53.932Z,20.21
2022-08-17T05:23:20.594Z,20.28
2022-08-17T05:25:47.906Z,20.35
2022-08-17T05:28:14.608Z,20.28
2022-08-17T05:30:42.533Z,19.91
2022-08-17T05:33:10.231Z,19.80
2022-08-17T05:35:36.962Z,19.81
2022-08-17T05:38:03.627Z,19.83
2022-08-17T05:40:32.647Z,19.98
2022-08-17T05:43:06.231Z,20.60
2022-08-17T05:45:55.158Z,21.59
2022-08-17T05:48:18.697Z,22.80
2022-08-17T05:51:03.742Z,23.45
2022-08-17T05:53:31.389Z,24.23
2022-08-17T05:56:29.874Z,24.53
2022-08-17T05:59:15.350Z,25.02
2022-08-17T06:01:49.573Z,25.50
2022-08-17T06:04:15.768Z,25.77
2022-08-17T06:06:44.600Z,26.04
2022-08-17T06:09:31.544Z,26.13
2022-08-17T06:12:02.783Z,26.43
2022-08-17T06:14:50.685Z,26.76
2022-08-17T06:17:18.234Z,26.56
2022-08-17T06:19:47.228Z,26.75
2022-08-17T06:22:13.970Z,26.72
2022-08-17T06:24:54.637Z,26.74
2022-08-17T06:27:20.827Z,27.64
2022-08-17T06:29:55.975Z,26.86
2022-08-17T06:32:22.205Z,26.99
2022-08-17T06:34:48.443Z,26.63
2022-08-17T06:37:37.653Z,26.79
2022-08-17T06:40:14.759Z,26.71
2022-08-17T06:43:05.595Z,26.98
2022-08-17T06:45:41.944Z,26.43
2022-08-17T06:48:13.386Z,26.48
2022-08-17T06:50:42.017Z,26.70
2022-08-17T06:53:13.721Z,27.05
2022-08-17T06:55:47.125Z,26.91
2022-08-17T06:58:16.276Z,27.33
2022-08-17T07:00:43.640Z,27.08
2022-08-17T07:03:28.789Z,27.46
2022-08-17T07:05:57.496Z,27.33
2022-08-17T07:08:31.198Z,27.53
2022-08-17T07:11:06.990Z,27.70
2022-08-17T07:13:52.192Z,28.10
2022-08-17T07:16:19.989Z,27.87
2022-08-17T07:18:46.542Z,28.26
2022-08-17T07:21:18.072Z,28.36
2022-08-17T07:24:01.198Z,28.52
2022-08-17T07:26:27.463Z,28.72
2022-08-17T07:28:54.074Z,28.10
2022-08-17T07:31:20.324Z,28.48
2022-08-17T07:33:57.862Z,28.58
2022-08-17T07:36:29.137Z,28.56
2022-08-17T07:38:56.504Z,28.67
2022-08-17T07:41:22.738Z,28.55
2022-08-17T07:43:48.985Z,28.68
2022-08-17T07:46:24.893Z,29.04
2022-08-17T07:48:52.392Z,28.96
2022-08-17T07:51:29.277Z,29.20
2022-08-17T07:54:09.100Z,29.26
2022-08-17T07:56:44.247Z,29.33
2022-08-17T07:59:12.179Z,29.18
2022-08-17T08:01:41.774Z,28.95
2022-08-17T08:04:19.412Z,29.33
2022-08-17T08:06:51.228Z,29.20
2022-08-17T08:09:34.258Z,29.38
2022-08-17T08:12:05.205Z,29.43
2022-08-17T08:14:31.762Z,29.54
2022-08-17T08:17:02.061Z,29.22
2022-08-17T08:19:28.636Z,29.32
2022-08-17T08:22:00.194Z,29.27
2022-08-17T08:24:41.547Z,29.86
2022-08-17T08:27:26.372Z,29.89
2022-08-17T08:29:57.454Z,29.85
2022-08-17T08:32:26.657Z,29.57
2022-08-17T08:35:01.629Z,29.40
2022-08-17T08:37:36.677Z,29.50
2022-08-17T08:40:30.275Z,29.44
2022-08-17T08:42:59.803Z,29.13
2022-08-17T08:45:38.343Z,29.38
2022-08-17T08:48:22.719Z,29.09
2022-08-17T08:50:54.918Z,29.23
2022-08-17T08:53:39.265Z,29.55
2022-08-17T08:56:12.228Z,29.39
2022-08-17T08:58:57.256Z,29.22
2022-08-17T09:01:29.423Z,29.54
2022-08-17T09:04:17.005Z,29.29
2022-08-17T09:06:57.876Z,28.76
2022-08-17T09:09:35.898Z,28.33
2022-08-17T09:12:05.295Z,28.22
2022-08-17T09:14:46.472Z,28.59
2022-08-17T09:17:28.648Z,28.93
2022-08-17T09:19:56.179Z,29.23
2022-08-17T09:22:36.338Z,29.64
2022-08-17T09:25:21.583Z,30.18
2022-08-17T09:27:52.790Z,30.49
2022-08-17T09:30:19.195Z,30.78
2022-08-17T09:32:46.504Z,30.58
2022-08-17T09:35:15.720Z,30.52
2022-08-17T09:37:44.693Z,30.61
2022-08-17T09:40:15.829Z,30.69
2022-08-17T09:42:46.931Z,30.37
2022-08-17T09:45:31.959Z,30.61
2022-08-17T09:48:01.130Z,30.62
2022-08-17T09:51:04.035Z,30.77
2022-08-17T09:53:22.657Z,31.06
2022-08-17T09:55:51.672Z,31.35
2022-08-17T09:58:28.965Z,30.75
2022-08-17T10:00:57.844Z,30.56
2022-08-17T10:03:42.337Z,30.41
2022-08-17T10:06:27.487Z,30.36
2022-08-17T10:08:58.542Z,30.99
2022-08-17T10:11:33.903Z,31.02
2022-08-17T10:14:07.903Z,31.24
2022-08-17T10:16:56.316Z,31.21
2022-08-17T10:19:22.501Z,31.15
2022-08-17T10:21:49.720Z,31.31
2022-08-17T10:24:31.883Z,30.90
2022-08-17T10:26:58.549Z,30.85
2022-08-17T10:29:30.779Z,30.35
2022-08-17T10:32:17.062Z,30.81
2022-08-17T10:34:52.314Z,30.48
2022-08-17T10:37:37.266Z,30.45
2022-08-17T10:40:22.387Z,30.40
2022-08-17T10:42:50.210Z,30.92
2022-08-17T10:45:23.567Z,30.66
2022-08-17T10:48:00.119Z,30.88
2022-08-17T10:50:49.234Z,31.16
2022-08-17T10:53:38.191Z,31.35
2022-08-17T10:56:12.618Z,30.77
2022-08-17T10:58:47.729Z,30.84
2022-08-17T11:01:14.004Z,31.61
2022-08-17T11:03:53.500Z,31.93
2022-08-17T11:06:39.973Z,31.97
2022-08-17T11:09:09.233Z,31.32
2022-08-17T11:11:54.382Z,29.89
2022-08-17T11:14:39.229Z,30.54
2022-08-17T11:17:08.475Z,31.05
2022-08-17T11:19:43.629Z,31.50
2022-08-17T11:22:15.567Z,31.74
2022-08-17T11:24:45.565Z,31.42
2022-08-17T11:27:20.174Z,31.66
2022-08-17T11:29:49.441Z,31.65
2022-08-17T11:32:37.348Z,31.72
2022-08-17T11:35:09.569Z,31.85
2022-08-17T11:37:39.900Z,31.82
2022-08-17T11:40:12.733Z,31.77
2022-08-17T11:42:45.667Z,31.43
2022-08-17T11:45:32.252Z,31.69
2022-08-17T11:48:27.891Z,31.65
2022-08-17T11:50:57.202Z,31.54
2022-08-17T11:53:38.634Z,31.82
2022-08-17T11:56:07.640Z,31.74
2022-08-17T11:58:40.466Z,31.79
2022-08-17T12:01:26.981Z,31.77
2022-08-17T12:03:55.683Z,31.88
2022-08-17T12:06:29.311Z,31.66
2022-08-17T12:09:01.690Z,31.16
2022-08-17T12:11:56.359Z,30.66
2022-08-17T12:14:19.220Z,30.07
2022-08-17T12:16:57.456Z,30.27
2022-08-17T12:19:23.697Z,30.17
2022-08-17T12:21:51.934Z,30.37
2022-08-17T12:24:24.270Z,31.00
2022-08-17T12:26:51.310Z,30.95
2022-08-17T12:29:18.491Z,31.51
2022-08-17T12:32:02.367Z,31.50
2022-08-17T12:34:33.697Z,31.83
2022-08-17T12:37:00.420Z,31.45
2022-08-17T12:39:26.738Z,31.50
2022-08-17T12:41:57.361Z,31.18
2022-08-17T12:44:27.565Z,30.74
2022-08-17T12:46:53.765Z,30.07
2022-08-17T12:49:25.846Z,30.45
2022-08-17T12:51:53.911Z,30.66
2022-08-17T12:54:22.917Z,30.58
2022-08-17T12:56:49.141Z,30.38
2022-08-17T12:59:15.363Z,30.21
2022-08-17T13:01:55.986Z,29.84
2022-08-17T13:04:23.559Z,30.01
2022-08-17T13:06:52.701Z,29.86
2022-08-17T13:09:36.059Z,29.77
2022-08-17T13:12:06.874Z,29.86
2022-08-17T13:14:34.101Z,29.56
2022-08-17T13:17:01.037Z,29.57
2022-08-17T13:19:29.792Z,30.12
2022-08-17T13:22:09.002Z,30.63
2022-08-17T13:24:37.815Z,30.63
2022-08-17T13:27:07.996Z,30.77
2022-08-17T13:29:35.670Z,31.05
2022-08-17T13:32:05.301Z,31.18
2022-08-17T13:35:12.031Z,31.12
2022-08-17T13:37:30.614Z,30.89
2022-08-17T13:40:09.334Z,30.93
2022-08-17T13:42:50.390Z,31.01
2022-08-17T13:45:36.753Z,30.31
2022-08-17T13:48:20.606Z,30.37
2022-08-17T13:50:58.764Z,30.08
2022-08-17T13:53:31.021Z,29.73
2022-08-17T13:55:57.430Z,29.53
2022-08-17T13:58:24.544Z,29.07
2022-08-17T14:00:50.792Z,28.71
2022-08-17T14:03:17.064Z,28.44
2022-08-17T14:05:43.288Z,29.10
2022-08-17T14:08:10.607Z,29.75
2022-08-17T14:10:36.874Z,30.11
2022-08-17T14:13:03.240Z,30.37
2022-08-17T14:15:55.485Z,30.56
2022-08-17T14:18:15.685Z,30.68
2022-08-17T14:20:41.908Z,30.71
2022-08-17T14:23:08.156Z,30.61
2022-08-17T14:25:34.390Z,30.71
2022-08-17T14:28:01.107Z,30.69
2022-08-17T14:30:29.825Z,30.70
2022-08-17T14:32:56.391Z,30.58
2022-08-17T14:35:22.664Z,30.40
2022-08-17T14:37:49.388Z,30.39
2022-08-17T14:40:16.120Z,30.22
2022-08-17T14:42:42.798Z,29.79
2022-08-17T14:45:27.382Z,29.66
2022-08-17T14:47:55.533Z,29.40
2022-08-17T14:50:22.086Z,29.24
2022-08-17T14:52:48.614Z,29.43
2022-08-17T14:55:15.231Z,29.62
2022-08-17T14:57:41.479Z,29.67
2022-08-17T15:00:07.993Z,29.43
2022-08-17T15:02:42.322Z,29.39
2022-08-17T15:05:08.638Z,29.36
2022-08-17T15:07:34.878Z,29.32
2022-08-17T15:10:01.917Z,29.56
2022-08-17T15:12:32.232Z,29.57
2022-08-17T15:14:58.852Z,29.66
2022-08-17T15:17:25.091Z,29.50
2022-08-17T15:19:51.340Z,29.33
2022-08-17T15:22:22.832Z,29.18
2022-08-17T15:24:49.092Z,29.02
2022-08-17T15:27:15.319Z,29.01
2022-08-17T15:29:51.998Z,28.94
2022-08-17T15:32:27.753Z,28.87
2022-08-17T15:34:57.572Z,28.79
2022-08-17T15:37:24.476Z,28.69
2022-08-17T15:39:50.842Z,28.50
2022-08-17T15:42:17.510Z,28.27
2022-08-17T15:44:43.758Z,28.25
2022-08-17T15:47:10.200Z,28.24
2022-08-17T15:49:39.008Z,28.29
2022-08-17T15:52:14.183Z,28.25
2022-08-17T15:54:40.425Z,28.20
2022-08-17T15:57:11.567Z,28.19
2022-08-17T15:59:37.817Z,28.06
2022-08-17T16:03:15.421Z,28.02
2022-08-17T16:05:10.137Z,27.99
2022-08-17T16:07:36.696Z,27.94
2022-08-17T16:10:03.230Z,27.90
2022-08-17T16:12:29.474Z,27.99
2022-08-17T16:14:55.752Z,28.11
2022-08-17T16:17:40.015Z,28.13
2022-08-17T16:20:07.547Z,28.22
2022-08-17T16:22:36.419Z,28.37
2022-08-17T16:25:10.038Z,28.49
2022-08-17T16:27:36.272Z,28.25
2022-08-17T16:30:03.754Z,28.46
2022-08-17T16:32:31.679Z,28.52
2022-08-17T16:35:05.909Z,28.62
2022-08-17T16:37:34.227Z,28.65
2022-08-17T16:40:01.324Z,28.55
2022-08-17T16:42:28.771Z,28.73
2022-08-17T16:44:55.313Z,28.75
2022-08-17T16:47:21.567Z,28.54
2022-08-17T16:49:47.992Z,28.40
2022-08-17T16:52:14.253Z,28.36
2022-08-17T16:54:59.266Z,28.38
2022-08-17T16:57:25.500Z,28.47
2022-08-17T16:59:51.951Z,28.58
2022-08-17T17:02:44.371Z,28.65
2022-08-17T17:05:13.324Z,28.70
2022-08-17T17:07:58.081Z,28.71
2022-08-17T17:10:26.306Z,28.64
2022-08-17T17:13:02.386Z,28.54
2022-08-17T17:15:32.915Z,28.46
2022-08-17T17:18:01.805Z,28.24
2022-08-17T17:20:35.125Z,27.98
2022-08-17T17:23:05.109Z,27.86
2022-08-17T17:25:39.653Z,27.79
2022-08-17T17:28:15.450Z,27.53
2022-08-17T17:30:45.642Z,27.37
2022-08-17T17:33:16.962Z,27.39
2022-08-17T17:35:43.155Z,27.33
2022-08-17T17:38:15.566Z,27.25
2022-08-17T17:40:42.336Z,26.71
2022-08-17T17:43:34.942Z,26.41
2022-08-17T17:46:27.664Z,26.36
2022-08-17T17:48:55.058Z,26.39
2022-08-17T17:52:03.568Z,26.43
2022-08-17T17:54:12.970Z,26.46
2022-08-17T17:56:57.493Z,26.50
2022-08-17T17:59:26.735Z,26.30
2022-08-17T18:01:55.466Z,25.94
2022-08-17T18:04:32.132Z,25.67
2022-08-17T18:07:05.571Z,25.37
2022-08-17T18:09:53.887Z,25.17
2022-08-17T18:12:27.497Z,24.91
2022-08-17T18:15:06.144Z,24.88
2022-08-17T18:17:32.376Z,24.70
2022-08-17T18:19:58.749Z,24.80
2022-08-17T18:22:25.074Z,25.00
2022-08-17T18:24:52.921Z,25.02
2022-08-17T18:27:20.780Z,25.08
2022-08-17T18:29:47.203Z,25.11
2022-08-17T18:32:13.377Z,25.12
2022-08-17T18:34:48.198Z,25.21
2022-08-17T18:37:26.580Z,25.26
2022-08-17T18:39:52.893Z,25.38
2022-08-17T18:42:26.070Z,25.36
2022-08-17T18:44:55.155Z,25.43
2022-08-17T18:47:25.831Z,25.44
2022-08-17T18:49:53.381Z,25.19
2022-08-17T18:52:22.468Z,25.01
2022-08-17T18:54:54.772Z,24.97
2022-08-17T18:57:25.276Z,24.88
2022-08-17T18:59:51.529Z,24.86
2022-08-17T19:02:27.208Z,24.87
2022-08-17T19:05:01.189Z,24.79
2022-08-17T19:07:29.060Z,24.68
2022-08-17T19:09:56.852Z,24.72
2022-08-17T19:12:27.351Z,24.75
2022-08-17T19:14:53.859Z,24.74
2022-08-17T19:17:41.454Z,24.73
2022-08-17T19:20:10.465Z,24.56
2022-08-17T19:22:44.274Z,24.60
2022-08-17T19:25:16.095Z,24.42
2022-08-17T19:27:49.199Z,24.49
2022-08-17T19:30:16.350Z,24.47
2022-08-17T19:32:42.583Z,24.48
2022-08-17T19:35:12.399Z,24.40
2022-08-17T19:37:57.029Z,24.46
2022-08-17T19:40:50.965Z,24.31
2022-08-17T19:43:14.469Z,24.14
2022-08-17T19:45:49.284Z,24.24
2022-08-17T19:48:18.573Z,24.26
2022-08-17T19:50:56.353Z,24.16
2022-08-17T19:54:04.243Z,24.13
2022-08-17T19:56:28.792Z,24.11
2022-08-17T19:58:54.978Z,24.15
2022-08-17T20:01:47.610Z,24.10
2022-08-17T20:04:32.380Z,24.04
2022-08-17T20:07:18.099Z,24.12
2022-08-17T20:09:46.631Z,23.91
2022-08-17T20:12:17.156Z,23.96
2022-08-17T20:14:53.380Z,23.97
2022-08-17T20:17:22.266Z,23.94
2022-08-17T20:19:49.568Z,23.69
2022-08-17T20:22:17.704Z,23.64
2022-08-17T20:24:48.275Z,23.51
2022-08-17T20:27:31.405Z,23.62
2022-08-17T20:29:58.022Z,23.69
2022-08-17T20:32:26.139Z,23.68
2022-08-17T20:35:09.179Z,23.83
2022-08-17T20:37:35.457Z,23.74
2022-08-17T20:40:04.732Z,23.69
2022-08-17T20:42:31.560Z,23.77
2022-08-17T20:44:58.413Z,23.54
2022-08-17T20:47:27.479Z,23.54
2022-08-17T20:49:55.465Z,23.63
2022-08-17T20:52:40.025Z,23.65
2022-08-17T20:55:06.483Z,23.57
2022-08-17T20:57:32.688Z,23.54
2022-08-17T21:00:00.023Z,23.42
2022-08-17T21:02:26.377Z,23.08
2022-08-17T21:04:52.574Z,23.17
2022-08-17T21:07:43.367Z,23.19
2022-08-17T21:10:10.044Z,23.15
2022-08-17T21:12:43.441Z,23.06
2022-08-17T21:15:27.468Z,23.07
2022-08-17T21:17:59.539Z,23.10
2022-08-17T21:20:34.347Z,23.05
2022-08-17T21:23:19.617Z,23.02
2022-08-17T21:25:54.933Z,23.03
2022-08-17T21:29:01.070Z,22.90
2022-08-17T21:31:27.541Z,22.81
2022-08-17T21:34:12.991Z,22.65
2022-08-17T21:36:39.246Z,22.75
2022-08-17T21:39:06.105Z,22.76
2022-08-17T21:41:33.717Z,22.85
2022-08-17T21:44:04.703Z,22.98
2022-08-17T21:46:32.066Z,22.97
2022-08-17T21:49:02.624Z,22.96
2022-08-17T21:51:36.077Z,23.00
2022-08-17T21:54:13.845Z,22.90
2022-08-17T21:56:40.332Z,22.86
2022-08-17T21:59:19.770Z,22.80
2022-08-17T22:01:56.132Z,22.85
2022-08-17T22:04:32.549Z,22.86
2022-08-17T22:06:59.586Z,22.82
2022-08-17T22:09:27.161Z,22.84
2022-08-17T22:11:55.534Z,22.63
2022-08-17T22:14:52.821Z,22.45
2022-08-17T22:17:24.956Z,22.36
2022-08-17T22:19:52.234Z,22.24
2022-08-17T22:22:21.428Z,22.38
2022-08-17T22:24:55.414Z,22.48
2022-08-17T22:27:42.929Z,22.51
2022-08-17T22:30:29.230Z,22.47
2022-08-17T22:32:55.719Z,22.47
2022-08-17T22:35:24.933Z,22.57
2022-08-17T22:37:51.274Z,22.57
2022-08-17T22:40:26.788Z,22.53
2022-08-17T22:42:53.020Z,22.32
2022-08-17T22:45:19.263Z,22.55
2022-08-17T22:47:45.506Z,22.63
2022-08-17T22:50:12.826Z,22.34
2022-08-17T22:52:39.753Z,22.38
2022-08-17T22:55:09.598Z,22.43
2022-08-17T22:57:36.187Z,22.51
2022-08-17T23:00:02.501Z,22.55
2022-08-17T23:02:32.740Z,22.58
2022-08-17T23:05:11.193Z,22.57
2022-08-17T23:07:37.432Z,22.54
2022-08-17T23:10:03.836Z,22.51
2022-08-17T23:12:30.080Z,22.52
2022-08-17T23:14:57.185Z,22.50
2022-08-17T23:17:23.416Z,22.34
2022-08-17T23:19:49.654Z,22.26
2022-08-17T23:22:15.894Z,22.31
2022-08-17T23:24:43.134Z,22.22
2022-08-17T23:27:09.376Z,22.39
2022-08-17T23:29:35.610Z,22.42
2022-08-17T23:32:01.850Z,22.31
2022-08-17T23:34:28.097Z,22.36
2022-08-17T23:36:54.767Z,22.38
2022-08-17T23:39:27.266Z,22.27
2022-08-17T23:41:54.730Z,22.31
2022-08-17T23:44:20.966Z,22.38
2022-08-17T23:46:47.348Z,22.44
2022-08-17T23:49:13.594Z,22.45
2022-08-17T23:51:40.005Z,22.45
2022-08-17T23:54:09.704Z,22.37
2022-08-17T23:56:36.206Z,22.27
2022-08-17T23:59:02.432Z,21.92
